sensor_id;sensor_type;location;lat;lon;timestamp;temperature;humidity
35495;DHT22;21608;49.300;6.846;2022-07-10T00:01:26;23.80;46.80
35495;DHT22;21608;49.300;6.846;2022-07-10T00:04:28;23.80;46.90
35495;DHT22;21608;49.300;6.846;2022-07-10T00:07:30;23.80;46.90
35495;DHT22;21608;49.300;6.846;2022-07-10T00:10:32;23.80;46.90
35495;DHT22;21608;49.300;6.846;2022-07-10T00:13:35;23.80;46.90
35495;DHT22;21608;49.300;6.846;2022-07-10T00:16:37;23.80;46.90
35495;DHT22;21608;49.300;6.846;2022-07-10T00:19:39;23.80;46.90
35495;DHT22;21608;49.300;6.846;2022-07-10T00:22:41;23.80;46.90
35495;DHT22;21608;49.300;6.846;2022-07-10T00:25:43;23.80;46.90
35495;DHT22;21608;49.300;6.846;2022-07-10T00:28:45;23.80;46.90
35495;DHT22;21608;49.300;6.846;2022-07-10T00:31:47;23.80;46.90
35495;DHT22;21608;49.300;6.846;2022-07-10T00:34:49;23.80;46.90
35495;DHT22;21608;49.300;6.846;2022-07-10T00:37:51;23.80;47.00
35495;DHT22;21608;49.300;6.846;2022-07-10T00:40:53;23.80;46.90
35495;DHT22;21608;49.300;6.846;2022-07-10T00:43:57;23.80;47.00
35495;DHT22;21608;49.300;6.846;2022-07-10T00:46:59;23.70;46.90
35495;DHT22;21608;49.300;6.846;2022-07-10T00:50:01;23.70;46.90
35495;DHT22;21608;49.300;6.846;2022-07-10T00:53:03;23.70;46.90
35495;DHT22;21608;49.300;6.846;2022-07-10T00:56:06;23.70;46.90
35495;DHT22;21608;49.300;6.846;2022-07-10T00:59:11;23.70;46.90
35495;DHT22;21608;49.300;6.846;2022-07-10T01:02:13;23.70;46.90
35495;DHT22;21608;49.300;6.846;2022-07-10T01:05:15;23.70;46.90
35495;DHT22;21608;49.300;6.846;2022-07-10T01:08:17;23.70;47.00
35495;DHT22;21608;49.300;6.846;2022-07-10T01:11:20;23.70;46.90
35495;DHT22;21608;49.300;6.846;2022-07-10T01:14:22;23.70;46.90
35495;DHT22;21608;49.300;6.846;2022-07-10T01:17:26;23.70;46.90
35495;DHT22;21608;49.300;6.846;2022-07-10T01:20:31;23.70;46.90
35495;DHT22;21608;49.300;6.846;2022-07-10T01:23:36;23.70;46.90
35495;DHT22;21608;49.300;6.846;2022-07-10T01:26:38;23.70;46.90
35495;DHT22;21608;49.300;6.846;2022-07-10T01:29:44;23.70;47.50
35495;DHT22;21608;49.300;6.846;2022-07-10T01:32:47;23.70;46.90
35495;DHT22;21608;49.300;6.846;2022-07-10T01:35:49;23.70;46.90
35495;DHT22;21608;49.300;6.846;2022-07-10T01:38:52;23.70;46.80
35495;DHT22;21608;49.300;6.846;2022-07-10T01:41:54;23.70;46.90
35495;DHT22;21608;49.300;6.846;2022-07-10T01:44:56;23.70;46.90
35495;DHT22;21608;49.300;6.846;2022-07-10T01:48:05;23.70;46.90
35495;DHT22;21608;49.300;6.846;2022-07-10T01:51:08;23.70;46.90
35495;DHT22;21608;49.300;6.846;2022-07-10T01:54:10;23.60;46.90
35495;DHT22;21608;49.300;6.846;2022-07-10T01:57:12;23.70;46.90
35495;DHT22;21608;49.300;6.846;2022-07-10T02:00:15;23.60;46.90
35495;DHT22;21608;49.300;6.846;2022-07-10T02:03:17;23.60;46.90
35495;DHT22;21608;49.300;6.846;2022-07-10T02:06:37;23.60;46.90
35495;DHT22;21608;49.300;6.846;2022-07-10T02:09:39;23.70;47.50
35495;DHT22;21608;49.300;6.846;2022-07-10T02:12:41;23.60;46.90
35495;DHT22;21608;49.300;6.846;2022-07-10T02:15:43;23.60;46.90
35495;DHT22;21608;49.300;6.846;2022-07-10T02:18:45;23.60;46.90
35495;DHT22;21608;49.300;6.846;2022-07-10T02:21:47;23.60;46.80
35495;DHT22;21608;49.300;6.846;2022-07-10T02:24:49;23.70;46.90
35495;DHT22;21608;49.300;6.846;2022-07-10T02:27:51;23.70;46.90
35495;DHT22;21608;49.300;6.846;2022-07-10T02:30:52;23.60;46.90
35495;DHT22;21608;49.300;6.846;2022-07-10T02:33:55;23.60;46.90
35495;DHT22;21608;49.300;6.846;2022-07-10T02:36:57;23.60;46.80
35495;DHT22;21608;49.300;6.846;2022-07-10T02:39:58;23.60;46.80
35495;DHT22;21608;49.300;6.846;2022-07-10T02:43:00;23.60;46.90
35495;DHT22;21608;49.300;6.846;2022-07-10T02:46:02;23.60;46.80
35495;DHT22;21608;49.300;6.846;2022-07-10T02:49:04;23.60;46.80
35495;DHT22;21608;49.300;6.846;2022-07-10T02:52:06;23.60;46.90
35495;DHT22;21608;49.300;6.846;2022-07-10T02:55:08;23.60;46.90
35495;DHT22;21608;49.300;6.846;2022-07-10T02:58:11;23.60;46.90
35495;DHT22;21608;49.300;6.846;2022-07-10T03:01:14;23.60;46.90
35495;DHT22;21608;49.300;6.846;2022-07-10T03:04:16;23.60;46.80
35495;DHT22;21608;49.300;6.846;2022-07-10T03:07:18;23.60;46.90
35495;DHT22;21608;49.300;6.846;2022-07-10T03:10:20;23.60;46.80
35495;DHT22;21608;49.300;6.846;2022-07-10T03:13:22;23.60;46.80
35495;DHT22;21608;49.300;6.846;2022-07-10T03:16:24;23.60;46.80
35495;DHT22;21608;49.300;6.846;2022-07-10T03:19:26;23.60;46.80
35495;DHT22;21608;49.300;6.846;2022-07-10T03:22:28;23.60;46.80
35495;DHT22;21608;49.300;6.846;2022-07-10T03:25:30;23.60;46.90
35495;DHT22;21608;49.300;6.846;2022-07-10T03:28:31;23.60;46.90
35495;DHT22;21608;49.300;6.846;2022-07-10T03:31:33;23.60;46.80
35495;DHT22;21608;49.300;6.846;2022-07-10T03:34:35;23.60;46.90
35495;DHT22;21608;49.300;6.846;2022-07-10T03:37:37;23.60;46.90
35495;DHT22;21608;49.300;6.846;2022-07-10T03:40:39;23.60;46.80
35495;DHT22;21608;49.300;6.846;2022-07-10T03:43:41;23.60;46.80
35495;DHT22;21608;49.300;6.846;2022-07-10T03:46:43;23.60;46.90
35495;DHT22;21608;49.300;6.846;2022-07-10T03:49:45;23.50;46.80
35495;DHT22;21608;49.300;6.846;2022-07-10T03:52:46;23.60;46.90
35495;DHT22;21608;49.300;6.846;2022-07-10T03:55:48;23.60;46.90
35495;DHT22;21608;49.300;6.846;2022-07-10T03:58:50;23.60;46.90
35495;DHT22;21608;49.300;6.846;2022-07-10T04:01:52;23.60;46.90
35495;DHT22;21608;49.300;6.846;2022-07-10T04:04:54;23.50;46.90
35495;DHT22;21608;49.300;6.846;2022-07-10T04:07:57;23.50;46.90
35495;DHT22;21608;49.300;6.846;2022-07-10T04:10:59;23.60;46.90
35495;DHT22;21608;49.300;6.846;2022-07-10T04:14:01;23.50;46.90
35495;DHT22;21608;49.300;6.846;2022-07-10T04:17:03;23.50;46.90
35495;DHT22;21608;49.300;6.846;2022-07-10T04:20:06;23.50;46.80
35495;DHT22;21608;49.300;6.846;2022-07-10T04:23:07;23.50;46.90
35495;DHT22;21608;49.300;6.846;2022-07-10T04:26:09;23.50;46.90
35495;DHT22;21608;49.300;6.846;2022-07-10T04:29:11;23.50;46.90
35495;DHT22;21608;49.300;6.846;2022-07-10T04:32:14;23.50;46.80
35495;DHT22;21608;49.300;6.846;2022-07-10T04:35:16;23.50;46.90
35495;DHT22;21608;49.300;6.846;2022-07-10T04:38:18;23.50;46.90
35495;DHT22;21608;49.300;6.846;2022-07-10T04:41:20;23.60;46.90
35495;DHT22;21608;49.300;6.846;2022-07-10T04:44:22;23.60;46.90
35495;DHT22;21608;49.300;6.846;2022-07-10T04:47:24;23.50;46.90
35495;DHT22;21608;49.300;6.846;2022-07-10T04:50:26;23.50;46.90
35495;DHT22;21608;49.300;6.846;2022-07-10T04:53:27;23.60;46.90
35495;DHT22;21608;49.300;6.846;2022-07-10T04:56:29;23.60;46.80
35495;DHT22;21608;49.300;6.846;2022-07-10T04:59:31;23.60;46.90
35495;DHT22;21608;49.300;6.846;2022-07-10T05:02:33;23.60;46.80
35495;DHT22;21608;49.300;6.846;2022-07-10T05:05:35;23.60;46.80
35495;DHT22;21608;49.300;6.846;2022-07-10T05:08:37;23.60;46.80
35495;DHT22;21608;49.300;6.846;2022-07-10T05:11:39;23.60;46.80
35495;DHT22;21608;49.300;6.846;2022-07-10T05:14:41;23.60;46.80
35495;DHT22;21608;49.300;6.846;2022-07-10T05:17:43;23.60;46.80
35495;DHT22;21608;49.300;6.846;2022-07-10T05:20:45;23.60;47.20
35495;DHT22;21608;49.300;6.846;2022-07-10T05:23:49;23.60;46.80
35495;DHT22;21608;49.300;6.846;2022-07-10T05:26:51;23.60;46.80
35495;DHT22;21608;49.300;6.846;2022-07-10T05:29:53;23.60;46.80
35495;DHT22;21608;49.300;6.846;2022-07-10T05:32:54;23.60;46.80
35495;DHT22;21608;49.300;6.846;2022-07-10T05:35:56;23.60;46.80
35495;DHT22;21608;49.300;6.846;2022-07-10T05:38:58;23.60;46.80
35495;DHT22;21608;49.300;6.846;2022-07-10T05:42:00;23.60;46.80
35495;DHT22;21608;49.300;6.846;2022-07-10T05:45:02;23.60;46.80
35495;DHT22;21608;49.300;6.846;2022-07-10T05:48:05;23.60;46.80
35495;DHT22;21608;49.300;6.846;2022-07-10T05:51:07;23.70;46.80
35495;DHT22;21608;49.300;6.846;2022-07-10T05:54:29;23.70;46.80
35495;DHT22;21608;49.300;6.846;2022-07-10T05:57:31;23.70;46.80
35495;DHT22;21608;49.300;6.846;2022-07-10T06:00:33;23.70;46.80
35495;DHT22;21608;49.300;6.846;2022-07-10T06:03:34;23.70;46.80
35495;DHT22;21608;49.300;6.846;2022-07-10T06:06:37;23.70;46.80
35495;DHT22;21608;49.300;6.846;2022-07-10T06:09:38;23.80;46.80
35495;DHT22;21608;49.300;6.846;2022-07-10T06:12:40;23.80;46.70
35495;DHT22;21608;49.300;6.846;2022-07-10T06:15:42;23.80;46.70
35495;DHT22;21608;49.300;6.846;2022-07-10T06:18:44;23.80;46.70
35495;DHT22;21608;49.300;6.846;2022-07-10T06:21:47;23.80;46.60
35495;DHT22;21608;49.300;6.846;2022-07-10T06:24:48;23.80;46.60
35495;DHT22;21608;49.300;6.846;2022-07-10T06:27:50;23.80;46.50
35495;DHT22;21608;49.300;6.846;2022-07-10T06:30:52;23.80;46.50
35495;DHT22;21608;49.300;6.846;2022-07-10T06:34:00;23.90;46.50
35495;DHT22;21608;49.300;6.846;2022-07-10T06:37:03;23.90;46.50
35495;DHT22;21608;49.300;6.846;2022-07-10T06:40:05;23.90;46.50
35495;DHT22;21608;49.300;6.846;2022-07-10T06:43:07;23.90;46.50
35495;DHT22;21608;49.300;6.846;2022-07-10T06:46:09;23.90;46.40
35495;DHT22;21608;49.300;6.846;2022-07-10T06:49:11;23.90;46.40
35495;DHT22;21608;49.300;6.846;2022-07-10T06:52:13;23.90;46.40
35495;DHT22;21608;49.300;6.846;2022-07-10T06:55:16;24.00;46.40
35495;DHT22;21608;49.300;6.846;2022-07-10T06:58:19;24.00;47.00
35495;DHT22;21608;49.300;6.846;2022-07-10T07:01:21;24.00;46.30
35495;DHT22;21608;49.300;6.846;2022-07-10T07:04:23;24.00;46.30
35495;DHT22;21608;49.300;6.846;2022-07-10T07:07:25;24.00;46.30
35495;DHT22;21608;49.300;6.846;2022-07-10T07:10:27;24.00;46.30
35495;DHT22;21608;49.300;6.846;2022-07-10T07:13:29;24.00;46.30
35495;DHT22;21608;49.300;6.846;2022-07-10T07:16:31;24.00;46.20
35495;DHT22;21608;49.300;6.846;2022-07-10T07:19:48;24.10;46.30
35495;DHT22;21608;49.300;6.846;2022-07-10T07:23:09;24.00;46.20
35495;DHT22;21608;49.300;6.846;2022-07-10T07:26:14;24.10;46.30
35495;DHT22;21608;49.300;6.846;2022-07-10T07:29:16;24.10;46.30
35495;DHT22;21608;49.300;6.846;2022-07-10T07:32:18;24.10;46.30
35495;DHT22;21608;49.300;6.846;2022-07-10T07:35:20;24.10;46.20
35495;DHT22;21608;49.300;6.846;2022-07-10T07:38:22;24.10;46.20
35495;DHT22;21608;49.300;6.846;2022-07-10T07:41:24;24.10;46.20
35495;DHT22;21608;49.300;6.846;2022-07-10T07:44:26;24.20;46.80
35495;DHT22;21608;49.300;6.846;2022-07-10T07:47:31;24.20;46.20
35495;DHT22;21608;49.300;6.846;2022-07-10T07:50:35;24.20;46.20
35495;DHT22;21608;49.300;6.846;2022-07-10T07:53:37;24.20;46.20
35495;DHT22;21608;49.300;6.846;2022-07-10T07:56:38;24.20;46.20
35495;DHT22;21608;49.300;6.846;2022-07-10T07:59:40;24.20;46.30
35495;DHT22;21608;49.300;6.846;2022-07-10T08:02:42;24.20;46.30
35495;DHT22;21608;49.300;6.846;2022-07-10T08:05:44;24.20;46.30
35495;DHT22;21608;49.300;6.846;2022-07-10T08:08:46;24.20;46.40
35495;DHT22;21608;49.300;6.846;2022-07-10T08:11:48;24.20;46.30
35495;DHT22;21608;49.300;6.846;2022-07-10T08:14:50;24.30;46.40
35495;DHT22;21608;49.300;6.846;2022-07-10T08:17:54;24.30;46.40
35495;DHT22;21608;49.300;6.846;2022-07-10T08:20:57;24.30;46.50
35495;DHT22;21608;49.300;6.846;2022-07-10T08:23:59;24.30;46.40
35495;DHT22;21608;49.300;6.846;2022-07-10T08:27:01;24.30;46.40
35495;DHT22;21608;49.300;6.846;2022-07-10T08:30:03;24.30;46.40
35495;DHT22;21608;49.300;6.846;2022-07-10T08:33:05;24.30;46.40
35495;DHT22;21608;49.300;6.846;2022-07-10T08:36:07;24.30;46.40
35495;DHT22;21608;49.300;6.846;2022-07-10T08:39:29;24.30;46.30
35495;DHT22;21608;49.300;6.846;2022-07-10T08:42:32;24.30;46.30
35495;DHT22;21608;49.300;6.846;2022-07-10T08:45:34;24.30;46.40
35495;DHT22;21608;49.300;6.846;2022-07-10T08:48:36;24.40;46.40
35495;DHT22;21608;49.300;6.846;2022-07-10T08:55:00;24.30;46.30
35495;DHT22;21608;49.300;6.846;2022-07-10T08:58:03;24.40;46.20
35495;DHT22;21608;49.300;6.846;2022-07-10T09:01:06;24.30;45.80
35495;DHT22;21608;49.300;6.846;2022-07-10T09:04:19;24.40;45.40
35495;DHT22;21608;49.300;6.846;2022-07-10T09:07:21;24.40;45.30
35495;DHT22;21608;49.300;6.846;2022-07-10T09:10:27;24.30;45.00
35495;DHT22;21608;49.300;6.846;2022-07-10T09:13:29;24.30;44.80
35495;DHT22;21608;49.300;6.846;2022-07-10T09:16:32;24.30;44.80
35495;DHT22;21608;49.300;6.846;2022-07-10T09:19:34;24.30;44.80
35495;DHT22;21608;49.300;6.846;2022-07-10T09:22:36;24.30;44.80
35495;DHT22;21608;49.300;6.846;2022-07-10T09:25:39;24.30;45.00
35495;DHT22;21608;49.300;6.846;2022-07-10T09:28:41;24.30;45.10
35495;DHT22;21608;49.300;6.846;2022-07-10T09:34:55;24.30;45.40
35495;DHT22;21608;49.300;6.846;2022-07-10T09:38:15;24.20;45.40
35495;DHT22;21608;49.300;6.846;2022-07-10T09:44:27;24.30;45.40
35495;DHT22;21608;49.300;6.846;2022-07-10T09:47:29;24.30;45.30
35495;DHT22;21608;49.300;6.846;2022-07-10T09:50:33;24.20;45.40
35495;DHT22;21608;49.300;6.846;2022-07-10T09:53:43;24.20;45.60
35495;DHT22;21608;49.300;6.846;2022-07-10T09:56:49;24.20;45.40
35495;DHT22;21608;49.300;6.846;2022-07-10T09:59:55;24.20;45.50
35495;DHT22;21608;49.300;6.846;2022-07-10T10:06:15;24.20;45.40
35495;DHT22;21608;49.300;6.846;2022-07-10T10:12:35;24.20;45.50
35495;DHT22;21608;49.300;6.846;2022-07-10T10:15:42;24.20;45.40
35495;DHT22;21608;49.300;6.846;2022-07-10T10:18:46;24.20;45.70
35495;DHT22;21608;49.300;6.846;2022-07-10T10:22:09;24.20;45.50
35495;DHT22;21608;49.300;6.846;2022-07-10T10:25:16;24.20;45.60
35495;DHT22;21608;49.300;6.846;2022-07-10T10:28:19;24.20;45.50
35495;DHT22;21608;49.300;6.846;2022-07-10T10:31:26;24.10;45.80
35495;DHT22;21608;49.300;6.846;2022-07-10T10:34:48;24.10;45.70
35495;DHT22;21608;49.300;6.846;2022-07-10T10:37:57;24.10;45.70
35495;DHT22;21608;49.300;6.846;2022-07-10T10:41:25;24.10;45.60
35495;DHT22;21608;49.300;6.846;2022-07-10T10:44:30;24.10;45.70
35495;DHT22;21608;49.300;6.846;2022-07-10T10:47:58;24.10;45.70
35495;DHT22;21608;49.300;6.846;2022-07-10T10:51:20;24.10;45.80
35495;DHT22;21608;49.300;6.846;2022-07-10T10:54:22;24.10;45.80
35495;DHT22;21608;49.300;6.846;2022-07-10T11:00:40;24.00;45.30
35495;DHT22;21608;49.300;6.846;2022-07-10T11:07:10;24.10;46.00
35495;DHT22;21608;49.300;6.846;2022-07-10T11:10:32;24.00;45.90
35495;DHT22;21608;49.300;6.846;2022-07-10T11:13:34;24.10;46.00
35495;DHT22;21608;49.300;6.846;2022-07-10T11:16:37;24.10;46.00
35495;DHT22;21608;49.300;6.846;2022-07-10T11:19:53;24.00;45.20
35495;DHT22;21608;49.300;6.846;2022-07-10T11:29:23;24.10;46.00
35495;DHT22;21608;49.300;6.846;2022-07-10T11:32:25;24.10;45.90
35495;DHT22;21608;49.300;6.846;2022-07-10T11:35:27;24.00;46.00
35495;DHT22;21608;49.300;6.846;2022-07-10T11:38:29;24.00;46.00
35495;DHT22;21608;49.300;6.846;2022-07-10T11:41:33;24.10;46.00
35495;DHT22;21608;49.300;6.846;2022-07-10T11:44:35;24.00;46.00
35495;DHT22;21608;49.300;6.846;2022-07-10T11:47:40;24.00;46.00
35495;DHT22;21608;49.300;6.846;2022-07-10T11:50:43;24.10;46.10
35495;DHT22;21608;49.300;6.846;2022-07-10T11:54:03;24.00;46.10
35495;DHT22;21608;49.300;6.846;2022-07-10T11:57:06;24.00;46.00
35495;DHT22;21608;49.300;6.846;2022-07-10T12:00:30;24.00;46.00
35495;DHT22;21608;49.300;6.846;2022-07-10T12:03:32;24.00;46.10
35495;DHT22;21608;49.300;6.846;2022-07-10T12:06:39;24.00;46.10
35495;DHT22;21608;49.300;6.846;2022-07-10T12:09:41;24.00;46.10
35495;DHT22;21608;49.300;6.846;2022-07-10T12:12:43;24.00;46.10
35495;DHT22;21608;49.300;6.846;2022-07-10T12:15:46;24.00;46.10
35495;DHT22;21608;49.300;6.846;2022-07-10T12:18:48;24.00;46.20
35495;DHT22;21608;49.300;6.846;2022-07-10T12:21:51;24.00;46.20
35495;DHT22;21608;49.300;6.846;2022-07-10T12:24:58;24.00;46.20
35495;DHT22;21608;49.300;6.846;2022-07-10T12:28:01;24.00;46.20
35495;DHT22;21608;49.300;6.846;2022-07-10T12:31:03;24.00;46.20
35495;DHT22;21608;49.300;6.846;2022-07-10T12:34:08;24.00;46.20
35495;DHT22;21608;49.300;6.846;2022-07-10T12:37:11;24.00;46.10
35495;DHT22;21608;49.300;6.846;2022-07-10T12:40:30;24.00;46.20
35495;DHT22;21608;49.300;6.846;2022-07-10T12:43:32;24.00;46.30
35495;DHT22;21608;49.300;6.846;2022-07-10T12:46:33;24.00;46.30
35495;DHT22;21608;49.300;6.846;2022-07-10T12:53:10;24.00;46.30
35495;DHT22;21608;49.300;6.846;2022-07-10T12:59:36;24.00;46.40
35495;DHT22;21608;49.300;6.846;2022-07-10T13:02:38;24.00;46.30
35495;DHT22;21608;49.300;6.846;2022-07-10T13:05:43;24.00;46.30
35495;DHT22;21608;49.300;6.846;2022-07-10T13:08:45;24.00;46.30
35495;DHT22;21608;49.300;6.846;2022-07-10T13:11:52;24.00;46.30
35495;DHT22;21608;49.300;6.846;2022-07-10T13:14:54;24.00;46.30
35495;DHT22;21608;49.300;6.846;2022-07-10T13:17:57;24.00;46.30
35495;DHT22;21608;49.300;6.846;2022-07-10T13:20:59;24.00;46.40
35495;DHT22;21608;49.300;6.846;2022-07-10T13:24:03;24.00;46.40
35495;DHT22;21608;49.300;6.846;2022-07-10T13:27:06;24.00;47.00
35495;DHT22;21608;49.300;6.846;2022-07-10T13:30:08;24.00;46.40
35495;DHT22;21608;49.300;6.846;2022-07-10T13:33:10;24.00;46.50
35495;DHT22;21608;49.300;6.846;2022-07-10T13:36:12;23.90;46.40
35495;DHT22;21608;49.300;6.846;2022-07-10T13:39:14;24.00;46.40
35495;DHT22;21608;49.300;6.846;2022-07-10T13:42:16;23.90;46.50
35495;DHT22;21608;49.300;6.846;2022-07-10T13:45:18;24.00;46.40
35495;DHT22;21608;49.300;6.846;2022-07-10T13:48:20;24.00;46.50
35495;DHT22;21608;49.300;6.846;2022-07-10T13:51:22;24.00;46.40
35495;DHT22;21608;49.300;6.846;2022-07-10T13:54:24;24.00;46.40
35495;DHT22;21608;49.300;6.846;2022-07-10T13:57:26;24.00;46.40
35495;DHT22;21608;49.300;6.846;2022-07-10T14:00:28;24.00;46.50
35495;DHT22;21608;49.300;6.846;2022-07-10T14:03:30;24.00;46.60
35495;DHT22;21608;49.300;6.846;2022-07-10T14:06:32;24.00;46.50
35495;DHT22;21608;49.300;6.846;2022-07-10T14:09:34;24.00;46.50
35495;DHT22;21608;49.300;6.846;2022-07-10T14:12:36;24.00;46.50
35495;DHT22;21608;49.300;6.846;2022-07-10T14:15:38;24.00;46.50
35495;DHT22;21608;49.300;6.846;2022-07-10T14:18:42;24.00;46.50
35495;DHT22;21608;49.300;6.846;2022-07-10T14:21:47;24.00;46.50
35495;DHT22;21608;49.300;6.846;2022-07-10T14:24:49;24.00;46.50
35495;DHT22;21608;49.300;6.846;2022-07-10T14:27:51;24.00;46.50
35495;DHT22;21608;49.300;6.846;2022-07-10T14:30:53;24.00;46.50
35495;DHT22;21608;49.300;6.846;2022-07-10T14:33:56;24.00;46.50
35495;DHT22;21608;49.300;6.846;2022-07-10T14:36:58;24.00;46.50
35495;DHT22;21608;49.300;6.846;2022-07-10T14:40:02;24.00;46.60
35495;DHT22;21608;49.300;6.846;2022-07-10T14:43:04;24.00;46.60
35495;DHT22;21608;49.300;6.846;2022-07-10T14:46:06;24.00;46.60
35495;DHT22;21608;49.300;6.846;2022-07-10T14:49:09;24.00;46.60
35495;DHT22;21608;49.300;6.846;2022-07-10T14:52:11;24.00;46.60
35495;DHT22;21608;49.300;6.846;2022-07-10T14:55:14;24.00;46.60
35495;DHT22;21608;49.300;6.846;2022-07-10T14:58:16;24.00;46.60
35495;DHT22;21608;49.300;6.846;2022-07-10T15:01:18;24.00;46.60
35495;DHT22;21608;49.300;6.846;2022-07-10T15:04:20;23.90;46.60
35495;DHT22;21608;49.300;6.846;2022-07-10T15:07:22;24.00;46.60
35495;DHT22;21608;49.300;6.846;2022-07-10T15:10:24;24.00;46.60
35495;DHT22;21608;49.300;6.846;2022-07-10T15:13:26;24.00;46.70
35495;DHT22;21608;49.300;6.846;2022-07-10T15:16:28;24.00;46.70
35495;DHT22;21608;49.300;6.846;2022-07-10T15:19:31;24.00;46.70
35495;DHT22;21608;49.300;6.846;2022-07-10T15:22:33;24.00;46.70
35495;DHT22;21608;49.300;6.846;2022-07-10T15:25:35;23.90;46.70
35495;DHT22;21608;49.300;6.846;2022-07-10T15:28:40;23.90;46.80
35495;DHT22;21608;49.300;6.846;2022-07-10T15:31:42;23.90;46.80
35495;DHT22;21608;49.300;6.846;2022-07-10T15:34:44;23.90;46.80
35495;DHT22;21608;49.300;6.846;2022-07-10T15:37:46;23.90;46.70
35495;DHT22;21608;49.300;6.846;2022-07-10T15:40:48;24.00;46.80
35495;DHT22;21608;49.300;6.846;2022-07-10T15:43:50;23.90;46.70
35495;DHT22;21608;49.300;6.846;2022-07-10T15:46:51;23.90;46.80
35495;DHT22;21608;49.300;6.846;2022-07-10T15:49:53;23.90;46.90
35495;DHT22;21608;49.300;6.846;2022-07-10T15:52:55;23.90;47.00
35495;DHT22;21608;49.300;6.846;2022-07-10T15:55:57;24.00;47.00
35495;DHT22;21608;49.300;6.846;2022-07-10T15:58:59;23.90;47.00
35495;DHT22;21608;49.300;6.846;2022-07-10T16:02:01;23.90;47.00
35495;DHT22;21608;49.300;6.846;2022-07-10T16:05:04;23.90;47.60
35495;DHT22;21608;49.300;6.846;2022-07-10T16:08:06;23.90;47.00
35495;DHT22;21608;49.300;6.846;2022-07-10T16:11:08;23.90;47.00
35495;DHT22;21608;49.300;6.846;2022-07-10T16:14:10;23.90;47.00
35495;DHT22;21608;49.300;6.846;2022-07-10T16:17:12;23.90;47.00
35495;DHT22;21608;49.300;6.846;2022-07-10T16:20:13;23.90;47.10
35495;DHT22;21608;49.300;6.846;2022-07-10T16:23:16;23.90;47.10
35495;DHT22;21608;49.300;6.846;2022-07-10T16:26:18;23.90;47.00
35495;DHT22;21608;49.300;6.846;2022-07-10T16:29:21;23.90;47.00
35495;DHT22;21608;49.300;6.846;2022-07-10T16:32:26;23.90;47.10
35495;DHT22;21608;49.300;6.846;2022-07-10T16:35:28;23.90;47.10
35495;DHT22;21608;49.300;6.846;2022-07-10T16:38:31;23.90;47.10
35495;DHT22;21608;49.300;6.846;2022-07-10T16:41:33;24.00;46.20
35495;DHT22;21608;49.300;6.846;2022-07-10T16:44:35;23.90;45.30
35495;DHT22;21608;49.300;6.846;2022-07-10T16:47:37;23.90;45.40
35495;DHT22;21608;49.300;6.846;2022-07-10T16:50:39;23.90;46.20
35495;DHT22;21608;49.300;6.846;2022-07-10T16:53:41;23.90;46.00
35495;DHT22;21608;49.300;6.846;2022-07-10T16:57:03;23.90;46.10
35495;DHT22;21608;49.300;6.846;2022-07-10T17:00:14;23.90;45.40
35495;DHT22;21608;49.300;6.846;2022-07-10T17:03:16;23.90;44.30
35495;DHT22;21608;49.300;6.846;2022-07-10T17:06:17;23.80;44.10
35495;DHT22;21608;49.300;6.846;2022-07-10T17:09:19;23.80;44.50
35495;DHT22;21608;49.300;6.846;2022-07-10T17:12:21;23.80;44.60
35495;DHT22;21608;49.300;6.846;2022-07-10T17:15:23;23.80;45.00
35495;DHT22;21608;49.300;6.846;2022-07-10T17:18:26;23.80;45.30
35495;DHT22;21608;49.300;6.846;2022-07-10T17:21:29;23.90;45.40
35495;DHT22;21608;49.300;6.846;2022-07-10T17:24:51;23.90;45.50
35495;DHT22;21608;49.300;6.846;2022-07-10T17:27:55;23.90;45.60
35495;DHT22;21608;49.300;6.846;2022-07-10T17:30:57;23.90;45.60
35495;DHT22;21608;49.300;6.846;2022-07-10T17:33:59;23.90;45.70
35495;DHT22;21608;49.300;6.846;2022-07-10T17:37:03;23.90;45.70
35495;DHT22;21608;49.300;6.846;2022-07-10T17:40:05;23.90;45.70
35495;DHT22;21608;49.300;6.846;2022-07-10T17:43:07;23.90;45.70
35495;DHT22;21608;49.300;6.846;2022-07-10T17:46:09;23.90;45.70
35495;DHT22;21608;49.300;6.846;2022-07-10T17:49:11;23.90;45.70
35495;DHT22;21608;49.300;6.846;2022-07-10T17:52:13;23.90;45.70
35495;DHT22;21608;49.300;6.846;2022-07-10T17:55:15;23.90;45.70
35495;DHT22;21608;49.300;6.846;2022-07-10T17:58:17;23.90;45.70
35495;DHT22;21608;49.300;6.846;2022-07-10T18:01:19;23.90;45.70
35495;DHT22;21608;49.300;6.846;2022-07-10T18:04:21;24.00;45.70
35495;DHT22;21608;49.300;6.846;2022-07-10T18:07:23;24.00;45.80
35495;DHT22;21608;49.300;6.846;2022-07-10T18:10:24;23.90;45.80
35495;DHT22;21608;49.300;6.846;2022-07-10T18:13:26;24.00;45.80
35495;DHT22;21608;49.300;6.846;2022-07-10T18:16:28;23.90;45.90
35495;DHT22;21608;49.300;6.846;2022-07-10T18:19:30;23.90;45.90
35495;DHT22;21608;49.300;6.846;2022-07-10T18:22:32;24.00;45.90
35495;DHT22;21608;49.300;6.846;2022-07-10T18:25:34;24.00;46.00
35495;DHT22;21608;49.300;6.846;2022-07-10T18:28:36;24.00;46.00
35495;DHT22;21608;49.300;6.846;2022-07-10T18:31:42;24.00;46.00
35495;DHT22;21608;49.300;6.846;2022-07-10T18:34:44;24.00;46.00
35495;DHT22;21608;49.300;6.846;2022-07-10T18:37:45;24.00;46.10
35495;DHT22;21608;49.300;6.846;2022-07-10T18:40:48;24.00;46.10
35495;DHT22;21608;49.300;6.846;2022-07-10T18:43:50;23.90;46.10
35495;DHT22;21608;49.300;6.846;2022-07-10T18:46:52;23.90;46.10
35495;DHT22;21608;49.300;6.846;2022-07-10T18:49:54;23.90;46.10
35495;DHT22;21608;49.300;6.846;2022-07-10T18:52:56;23.90;46.20
35495;DHT22;21608;49.300;6.846;2022-07-10T18:55:58;24.00;46.20
35495;DHT22;21608;49.300;6.846;2022-07-10T18:59:00;24.00;46.20
35495;DHT22;21608;49.300;6.846;2022-07-10T19:02:02;24.00;46.30
35495;DHT22;21608;49.300;6.846;2022-07-10T19:05:05;24.00;46.20
35495;DHT22;21608;49.300;6.846;2022-07-10T19:08:06;24.00;46.20
35495;DHT22;21608;49.300;6.846;2022-07-10T19:11:09;24.00;45.90
35495;DHT22;21608;49.300;6.846;2022-07-10T19:14:11;24.00;46.10
35495;DHT22;21608;49.300;6.846;2022-07-10T19:17:13;24.00;46.20
35495;DHT22;21608;49.300;6.846;2022-07-10T19:20:15;24.00;46.30
35495;DHT22;21608;49.300;6.846;2022-07-10T19:23:17;24.00;46.30
35495;DHT22;21608;49.300;6.846;2022-07-10T19:26:19;24.00;46.30
35495;DHT22;21608;49.300;6.846;2022-07-10T19:29:22;24.00;46.30
35495;DHT22;21608;49.300;6.846;2022-07-10T19:32:24;24.00;46.30
35495;DHT22;21608;49.300;6.846;2022-07-10T19:35:31;24.00;46.30
35495;DHT22;21608;49.300;6.846;2022-07-10T19:38:33;24.00;46.30
35495;DHT22;21608;49.300;6.846;2022-07-10T19:41:35;24.00;46.40
35495;DHT22;21608;49.300;6.846;2022-07-10T19:44:44;24.00;46.50
35495;DHT22;21608;49.300;6.846;2022-07-10T19:47:47;24.00;46.50
35495;DHT22;21608;49.300;6.846;2022-07-10T19:50:49;24.00;46.60
35495;DHT22;21608;49.300;6.846;2022-07-10T19:53:50;24.00;46.70